Time;durP1;ratioP1;P1;durP2;ratioP2;P2;SDS_P1;SDS_P2;PMS_P1;PMS_P2;Temp;Humidity;BMP_temperature;BMP_pressure;BME280_temperature;BME280_humidity;BME280_pressure;Samples;Min_cycle;Max_cycle;Signal;HPM_P1;HPM_P2
2022/06/19 00:00:46;;;;;;;12.23;3.88;;;;;;;;;;5042625;28;20212;-69
2022/06/19 00:03:14;;;;;;;11.90;4.55;;;;;;;;;;5042525;28;20197;-69
2022/06/19 00:05:41;;;;;;;16.02;4.75;;;;;;;;;;5042285;28;20229;-69
2022/06/19 00:08:09;;;;;;;16.98;4.00;;;;;;;;;;5041947;28;20567;-69
2022/06/19 00:10:35;;;;;;;14.55;3.97;;;;;;;;;;5042396;28;20198;-69
2022/06/19 00:13:01;;;;;;;16.40;4.32;;;;;;;;;;5042590;28;20273;-69
2022/06/19 00:15:28;;;;;;;10.18;3.53;;;;;;;;;;5042208;28;20233;-69
2022/06/19 00:17:54;;;;;;;11.52;4.20;;;;;;;;;;5042054;28;20203;-69
2022/06/19 00:20:21;;;;;;;16.00;3.80;;;;;;;;;;5042310;28;20197;-69
2022/06/19 00:22:47;;;;;;;11.50;3.35;;;;;;;;;;5042137;28;20197;-69
2022/06/19 00:25:15;;;;;;;10.20;3.13;;;;;;;;;;5042425;28;20202;-69
2022/06/19 00:27:41;;;;;;;11.00;3.47;;;;;;;;;;5042037;28;20540;-69
2022/06/19 00:30:08;;;;;;;12.20;3.75;;;;;;;;;;5042289;28;20198;-69
2022/06/19 00:32:35;;;;;;;12.52;3.42;;;;;;;;;;5042118;28;20193;-69
2022/06/19 00:35:01;;;;;;;14.25;3.33;;;;;;;;;;5042012;28;20209;-69
2022/06/19 00:37:29;;;;;;;13.30;2.95;;;;;;;;;;5042080;28;20216;-69
2022/06/19 00:39:55;;;;;;;9.80;3.17;;;;;;;;;;5042223;28;20486;-69
2022/06/19 00:42:24;;;;;;;19.00;3.60;;;;;;;;;;5042209;28;20505;-69
2022/06/19 00:44:51;;;;;;;19.00;3.42;;;;;;;;;;5042592;28;20193;-69
2022/06/19 00:47:19;;;;;;;16.00;3.80;;;;;;;;;;5045960;28;20519;-69
2022/06/19 00:49:49;;;;;;;10.52;3.17;;;;;;;;;;5045949;28;20296;-69
2022/06/19 00:52:17;;;;;;;12.57;3.22;;;;;;;;;;5046131;28;20206;-69
2022/06/19 00:54:45;;;;;;;11.32;3.50;;;;;;;;;;5046002;28;20236;-69
2022/06/19 00:57:13;;;;;;;11.48;3.75;;;;;;;;;;5045888;28;20208;-69
2022/06/19 00:59:43;;;;;;;14.38;3.53;;;;;;;;;;5045873;28;20197;-69
2022/06/19 01:02:10;;;;;;;14.13;3.42;;;;;;;;;;5045901;28;20197;-69
2022/06/19 01:04:41;;;;;;;8.65;3.40;;;;;;;;;;5045820;28;20223;-69
2022/06/19 01:07:08;;;;;;;9.73;3.22;;;;;;;;;;5045764;28;20201;-69
2022/06/19 01:09:34;;;;;;;9.90;3.17;;;;;;;;;;5045820;28;20201;-69
2022/06/19 01:12:01;;;;;;;10.38;3.65;;;;;;;;;;5045818;28;20498;-69
2022/06/19 01:14:27;;;;;;;14.13;3.42;;;;;;;;;;5045537;28;20529;-69
2022/06/19 01:16:55;;;;;;;12.88;3.35;;;;;;;;;;5045198;28;20426;-69
2022/06/19 01:19:23;;;;;;;12.57;3.47;;;;;;;;;;5045761;28;20205;-69
2022/06/19 01:21:52;;;;;;;8.32;3.00;;;;;;;;;;5045836;28;20194;-69
2022/06/19 01:24:23;;;;;;;7.07;3.08;;;;;;;;;;5045538;28;20209;-69
2022/06/19 01:26:53;;;;;;;10.48;3.20;;;;;;;;;;5045264;28;20430;-69
2022/06/19 01:29:19;;;;;;;8.95;3.45;;;;;;;;;;5045214;28;20506;-69
2022/06/19 01:31:47;;;;;;;6.25;3.05;;;;;;;;;;5045211;28;20200;-69
2022/06/19 01:34:28;;;;;;;6.82;3.10;;;;;;;;;;5045228;28;20206;-69
2022/06/19 01:36:56;;;;;;;8.00;3.47;;;;;;;;;;5044648;28;20216;-69
2022/06/19 01:39:23;;;;;;;9.25;3.53;;;;;;;;;;5045434;28;20563;-69
2022/06/19 01:41:51;;;;;;;13.85;3.28;;;;;;;;;;5045306;28;20295;-69
2022/06/19 01:44:17;;;;;;;11.70;3.45;;;;;;;;;;5045016;28;20312;-69
2022/06/19 01:46:43;;;;;;;13.23;3.10;;;;;;;;;;5044905;28;20198;-69
2022/06/19 01:49:10;;;;;;;10.15;3.40;;;;;;;;;;5044917;28;20236;-69
2022/06/19 01:51:37;;;;;;;9.57;3.47;;;;;;;;;;5044905;28;20505;-69
2022/06/19 01:54:07;;;;;;;5.88;2.65;;;;;;;;;;5045070;28;20204;-69
2022/06/19 01:56:33;;;;;;;12.07;3.40;;;;;;;;;;5043334;28;20198;-69
2022/06/19 01:59:03;;;;;;;6.28;3.17;;;;;;;;;;5044909;28;20198;-69
2022/06/19 02:01:29;;;;;;;11.55;3.33;;;;;;;;;;5044923;28;20284;-69
2022/06/19 02:03:57;;;;;;;9.93;2.60;;;;;;;;;;5044663;28;20243;-69
2022/06/19 02:06:28;;;;;;;14.02;3.25;;;;;;;;;;5044420;28;20252;-69
2022/06/19 02:08:54;;;;;;;12.07;3.20;;;;;;;;;;5044584;28;20211;-69
2022/06/19 02:11:21;;;;;;;9.88;3.13;;;;;;;;;;5044650;28;20379;-69
2022/06/19 02:13:49;;;;;;;20.83;4.22;;;;;;;;;;5044667;28;20440;-69
2022/06/19 02:16:17;;;;;;;13.45;3.75;;;;;;;;;;5044223;28;20222;-69
2022/06/19 02:18:46;;;;;;;11.55;4.22;;;;;;;;;;5044471;28;20579;-69
2022/06/19 02:21:13;;;;;;;14.27;3.72;;;;;;;;;;5044649;28;20205;-69
2022/06/19 02:23:41;;;;;;;5.88;3.13;;;;;;;;;;5044538;28;20197;-69
2022/06/19 02:26:09;;;;;;;13.18;3.78;;;;;;;;;;5044058;28;20197;-69
2022/06/19 02:28:37;;;;;;;10.65;3.88;;;;;;;;;;5044259;28;20205;-69
2022/06/19 02:31:03;;;;;;;14.15;3.95;;;;;;;;;;5044078;28;20389;-69
2022/06/19 02:33:32;;;;;;;13.43;3.75;;;;;;;;;;5044411;28;20197;-69
2022/06/19 02:35:58;;;;;;;10.50;3.50;;;;;;;;;;5043829;28;20473;-69
2022/06/19 02:38:25;;;;;;;10.65;3.95;;;;;;;;;;5044076;28;20334;-69
2022/06/19 02:40:56;;;;;;;11.73;3.55;;;;;;;;;;5044034;28;20213;-69
2022/06/19 02:43:25;;;;;;;12.13;3.60;;;;;;;;;;5044073;28;20583;-69
2022/06/19 02:45:51;;;;;;;8.25;3.17;;;;;;;;;;5044158;28;20375;-69
2022/06/19 02:48:19;;;;;;;13.75;3.80;;;;;;;;;;5043925;28;20211;-69
2022/06/19 02:50:47;;;;;;;7.35;3.30;;;;;;;;;;5043984;28;20244;-69
2022/06/19 02:53:13;;;;;;;11.85;3.65;;;;;;;;;;5043892;28;20433;-69
2022/06/19 02:55:40;;;;;;;11.90;3.58;;;;;;;;;;5043575;28;20214;-69
2022/06/19 02:58:06;;;;;;;13.55;3.60;;;;;;;;;;5043413;28;20269;-69
2022/06/19 03:00:33;;;;;;;10.02;2.90;;;;;;;;;;5043906;28;20220;-69
2022/06/19 03:03:01;;;;;;;18.20;3.72;;;;;;;;;;5043794;28;20501;-69
2022/06/19 03:05:29;;;;;;;9.98;4.00;;;;;;;;;;5043610;28;20628;-69
2022/06/19 03:07:56;;;;;;;13.70;3.80;;;;;;;;;;5042875;28;20202;-69
2022/06/19 03:10:23;;;;;;;9.77;3.63;;;;;;;;;;5043458;28;20198;-69
2022/06/19 03:12:49;;;;;;;8.63;4.00;;;;;;;;;;5043389;28;20304;-69
2022/06/19 03:15:16;;;;;;;11.20;3.30;;;;;;;;;;5043527;28;20256;-69
2022/06/19 03:17:42;;;;;;;11.23;3.65;;;;;;;;;;5043183;28;20197;-69
2022/06/19 03:20:12;;;;;;;8.93;3.50;;;;;;;;;;5043324;28;20214;-69
2022/06/19 03:22:38;;;;;;;10.80;3.90;;;;;;;;;;5043194;28;20198;-69
2022/06/19 03:25:06;;;;;;;11.02;3.65;;;;;;;;;;5043128;28;20236;-69
2022/06/19 03:27:33;;;;;;;7.45;3.42;;;;;;;;;;5042902;28;20206;-70
2022/06/19 03:29:59;;;;;;;7.57;3.63;;;;;;;;;;5043454;28;20198;-69
2022/06/19 03:32:25;;;;;;;10.55;3.80;;;;;;;;;;5043134;28;20194;-69
2022/06/19 03:34:51;;;;;;;14.38;4.00;;;;;;;;;;5042881;28;20243;-69
2022/06/19 03:37:18;;;;;;;9.95;3.65;;;;;;;;;;5042807;28;20197;-69
2022/06/19 03:39:44;;;;;;;19.92;3.72;;;;;;;;;;5042794;28;20197;-69
2022/06/19 03:42:12;;;;;;;11.73;4.22;;;;;;;;;;5043350;28;20205;-69
2022/06/19 03:44:38;;;;;;;12.60;3.78;;;;;;;;;;5042815;28;20205;-69
2022/06/19 03:47:05;;;;;;;9.88;3.50;;;;;;;;;;5042725;28;20585;-69
2022/06/19 03:49:31;;;;;;;10.82;4.18;;;;;;;;;;5042752;28;20198;-69
2022/06/19 03:51:58;;;;;;;13.02;4.10;;;;;;;;;;5042764;28;20206;-69
2022/06/19 03:54:24;;;;;;;10.77;3.85;;;;;;;;;;5042565;28;20201;-69
2022/06/19 03:56:50;;;;;;;15.23;4.25;;;;;;;;;;5042531;28;20218;-69
2022/06/19 03:59:18;;;;;;;8.55;3.78;;;;;;;;;;5042796;28;20528;-69
2022/06/19 04:01:45;;;;;;;12.40;3.90;;;;;;;;;;5042584;28;20205;-69
2022/06/19 04:04:11;;;;;;;9.30;3.92;;;;;;;;;;5042495;28;20202;-68
2022/06/19 04:06:39;;;;;;;13.75;3.70;;;;;;;;;;5042060;28;20301;-69
2022/06/19 04:09:06;;;;;;;10.88;3.35;;;;;;;;;;5042429;28;20194;-69
2022/06/19 04:11:33;;;;;;;9.43;3.78;;;;;;;;;;5042552;28;20193;-69
2022/06/19 04:14:00;;;;;;;9.27;3.80;;;;;;;;;;5042463;28;20198;-69
2022/06/19 04:16:29;;;;;;;9.65;3.42;;;;;;;;;;5042060;28;20228;-71
2022/06/19 04:18:56;;;;;;;6.72;3.00;;;;;;;;;;5042601;28;20258;-71
2022/06/19 04:21:24;;;;;;;9.20;3.28;;;;;;;;;;5041779;28;20397;-71
2022/06/19 04:23:53;;;;;;;11.30;3.30;;;;;;;;;;5042466;28;20272;-71
2022/06/19 04:26:20;;;;;;;12.80;3.47;;;;;;;;;;5042326;28;20190;-71
2022/06/19 04:28:46;;;;;;;14.13;3.42;;;;;;;;;;5042307;28;20198;-71
2022/06/19 04:31:12;;;;;;;8.00;3.20;;;;;;;;;;5042220;28;20228;-71
2022/06/19 04:33:40;;;;;;;13.85;3.20;;;;;;;;;;5042272;28;20201;-71
2022/06/19 04:36:07;;;;;;;14.20;3.13;;;;;;;;;;5041824;28;20218;-71
2022/06/19 04:38:34;;;;;;;8.88;3.53;;;;;;;;;;5042225;28;20499;-71
2022/06/19 04:41:00;;;;;;;9.82;3.00;;;;;;;;;;5042051;28;20197;-71
2022/06/19 04:43:26;;;;;;;10.93;3.10;;;;;;;;;;5042225;28;20198;-72
2022/06/19 04:45:52;;;;;;;8.02;3.25;;;;;;;;;;5042261;28;20194;-72
2022/06/19 04:48:19;;;;;;;11.48;4.20;;;;;;;;;;5041890;28;20205;-72
2022/06/19 04:50:47;;;;;;;10.27;4.22;;;;;;;;;;5041907;28;20198;-72
2022/06/19 04:53:13;;;;;;;13.93;4.68;;;;;;;;;;5042180;28;20204;-72
2022/06/19 04:55:39;;;;;;;10.25;4.20;;;;;;;;;;5042084;28;20592;-72
2022/06/19 04:58:07;;;;;;;12.15;4.00;;;;;;;;;;5041747;28;20502;-72
2022/06/19 05:00:33;;;;;;;10.30;3.38;;;;;;;;;;5041887;28;20201;-72
2022/06/19 05:02:59;;;;;;;9.20;3.67;;;;;;;;;;5041887;28;20198;-72
2022/06/19 05:05:25;;;;;;;12.98;4.18;;;;;;;;;;5041788;28;20225;-72
2022/06/19 05:07:53;;;;;;;15.07;4.50;;;;;;;;;;5041628;28;20205;-72
2022/06/19 05:10:19;;;;;;;8.80;3.80;;;;;;;;;;5042140;28;20285;-72
2022/06/19 05:12:46;;;;;;;22.50;9.75;;;;;;;;;;5041814;28;20435;-72
2022/06/19 05:15:12;;;;;;;12.47;4.03;;;;;;;;;;5041740;28;20397;-72
2022/06/19 05:17:40;;;;;;;15.30;3.97;;;;;;;;;;5041932;28;20531;-72
2022/06/19 05:20:07;;;;;;;12.02;4.35;;;;;;;;;;5041971;28;20509;-71
2022/06/19 05:22:34;;;;;;;10.50;3.88;;;;;;;;;;5041859;28;20269;-72
2022/06/19 05:25:04;;;;;;;7.78;3.60;;;;;;;;;;5041858;28;20405;-72
2022/06/19 05:27:31;;;;;;;6.35;3.80;;;;;;;;;;5041420;28;20193;-72
2022/06/19 05:29:57;;;;;;;12.75;3.67;;;;;;;;;;5041749;28;20198;-72
2022/06/19 05:32:26;;;;;;;11.15;3.53;;;;;;;;;;5044557;28;20205;-72
2022/06/19 05:34:52;;;;;;;11.63;3.65;;;;;;;;;;5045558;28;20497;-72
2022/06/19 05:37:18;;;;;;;13.43;3.47;;;;;;;;;;5045137;28;20609;-72
2022/06/19 05:39:45;;;;;;;12.43;3.80;;;;;;;;;;5045371;28;20193;-72
2022/06/19 05:42:12;;;;;;;10.60;3.63;;;;;;;;;;5045344;28;20201;-72
2022/06/19 05:44:39;;;;;;;11.70;3.53;;;;;;;;;;5045534;28;20496;-72
2022/06/19 05:47:05;;;;;;;9.32;3.63;;;;;;;;;;5044795;28;20225;-72
2022/06/19 05:49:34;;;;;;;13.93;3.78;;;;;;;;;;5044986;28;20265;-71
2022/06/19 05:52:00;;;;;;;11.40;4.93;;;;;;;;;;5045195;28;20385;-71
2022/06/19 05:54:27;;;;;;;23.70;6.93;;;;;;;;;;5044978;28;20505;-72
2022/06/19 05:56:53;;;;;;;15.13;4.32;;;;;;;;;;5044604;28;20233;-72
2022/06/19 05:59:21;;;;;;;17.35;3.55;;;;;;;;;;5045016;28;20474;-72
2022/06/19 06:01:47;;;;;;;16.77;3.90;;;;;;;;;;5044709;28;20204;-72
2022/06/19 06:04:13;;;;;;;11.98;3.90;;;;;;;;;;5044769;28;20206;-72
2022/06/19 06:06:40;;;;;;;14.00;3.58;;;;;;;;;;5044503;28;20240;-72
2022/06/19 06:09:07;;;;;;;19.27;3.80;;;;;;;;;;5044608;28;20197;-72
2022/06/19 06:11:33;;;;;;;14.57;3.92;;;;;;;;;;5044720;28;20501;-72
2022/06/19 06:13:59;;;;;;;21.90;9.13;;;;;;;;;;5044365;28;20197;-72
2022/06/19 06:16:27;;;;;;;11.25;4.38;;;;;;;;;;5044394;28;20225;-72
2022/06/19 06:18:53;;;;;;;17.80;6.03;;;;;;;;;;5044760;28;20205;-72
2022/06/19 06:21:20;;;;;;;18.17;4.20;;;;;;;;;;5044432;28;20244;-72
2022/06/19 06:23:47;;;;;;;13.18;3.70;;;;;;;;;;5044401;28;20201;-72
2022/06/19 06:26:14;;;;;;;13.43;3.97;;;;;;;;;;5044117;28;20193;-72
2022/06/19 06:28:41;;;;;;;15.13;3.47;;;;;;;;;;5044395;28;20193;-72
2022/06/19 06:31:07;;;;;;;11.52;3.50;;;;;;;;;;5044263;28;20197;-72
2022/06/19 06:33:35;;;;;;;13.98;3.70;;;;;;;;;;5044533;28;20198;-72
2022/06/19 06:36:01;;;;;;;19.63;3.60;;;;;;;;;;5044075;28;20435;-72
2022/06/19 06:38:28;;;;;;;18.10;3.38;;;;;;;;;;5044124;28;20197;-72
2022/06/19 06:40:54;;;;;;;12.75;4.03;;;;;;;;;;5044149;28;20197;-72
2022/06/19 06:43:21;;;;;;;23.88;3.80;;;;;;;;;;5043037;28;20197;-72
2022/06/19 06:45:48;;;;;;;15.38;3.05;;;;;;;;;;5043841;28;20204;-72
2022/06/19 06:48:15;;;;;;;12.10;3.30;;;;;;;;;;5043734;28;20460;-72
2022/06/19 06:50:43;;;;;;;16.17;3.15;;;;;;;;;;5043900;28;20235;-72
2022/06/19 06:53:10;;;;;;;7.97;3.40;;;;;;;;;;5043852;28;20277;-72
2022/06/19 06:55:37;;;;;;;15.93;3.60;;;;;;;;;;5043865;28;20197;-72
2022/06/19 06:58:04;;;;;;;13.88;4.15;;;;;;;;;;5043752;28;20205;-72
2022/06/19 07:00:30;;;;;;;10.98;4.70;;;;;;;;;;5044001;28;20384;-72
2022/06/19 07:02:58;;;;;;;19.60;5.10;;;;;;;;;;5044045;28;20236;-72
2022/06/19 07:05:24;;;;;;;14.10;3.65;;;;;;;;;;5043480;28;20271;-72
2022/06/19 07:07:52;;;;;;;23.52;8.27;;;;;;;;;;5043422;28;20200;-72
2022/06/19 07:10:19;;;;;;;18.08;4.57;;;;;;;;;;5043496;28;20201;-72
2022/06/19 07:12:45;;;;;;;13.57;3.50;;;;;;;;;;5043793;28;20205;-72
2022/06/19 07:15:12;;;;;;;12.98;3.35;;;;;;;;;;5043549;28;20536;-72
2022/06/19 07:17:39;;;;;;;16.92;4.03;;;;;;;;;;5043315;28;20221;-72
2022/06/19 07:20:06;;;;;;;13.50;3.17;;;;;;;;;;5043330;28;20275;-72
2022/06/19 07:22:32;;;;;;;14.95;3.70;;;;;;;;;;5043259;28;20395;-72
2022/06/19 07:25:00;;;;;;;11.05;3.45;;;;;;;;;;5043210;28;20208;-72
2022/06/19 07:27:26;;;;;;;16.75;6.35;;;;;;;;;;5043124;28;20232;-72
2022/06/19 07:29:52;;;;;;;15.23;4.90;;;;;;;;;;5043262;28;20197;-72
2022/06/19 07:32:18;;;;;;;18.23;4.88;;;;;;;;;;5043047;28;20224;-72
2022/06/19 07:34:45;;;;;;;14.73;4.75;;;;;;;;;;5043283;28;20489;-72
2022/06/19 07:37:13;;;;;;;19.35;4.10;;;;;;;;;;5042742;28;20283;-72
2022/06/19 07:39:39;;;;;;;14.35;4.15;;;;;;;;;;5042810;28;20193;-72
2022/06/19 07:42:08;;;;;;;10.82;4.75;;;;;;;;;;5043114;28;20197;-72
2022/06/19 07:44:35;;;;;;;10.77;3.90;;;;;;;;;;5042853;28;20209;-72
2022/06/19 07:52:29;;;;;;;17.17;4.50;;;;;;;;;;5042702;28;20235;-71
2022/06/19 07:54:55;;;;;;;14.85;4.00;;;;;;;;;;5042884;28;20197;-72
2022/06/19 07:57:23;;;;;;;18.67;4.05;;;;;;;;;;5042428;28;20260;-71
2022/06/19 07:59:49;;;;;;;19.40;6.20;;;;;;;;;;5042687;28;20204;-72
2022/06/19 08:02:15;;;;;;;19.33;4.00;;;;;;;;;;5042569;28;20201;-72
2022/06/19 08:04:41;;;;;;;10.55;3.55;;;;;;;;;;5042313;28;20208;-71
2022/06/19 08:07:10;;;;;;;16.30;4.47;;;;;;;;;;5042711;28;20212;-71
2022/06/19 08:09:36;;;;;;;19.73;4.45;;;;;;;;;;5042329;28;20197;-72
2022/06/19 08:12:02;;;;;;;13.07;4.43;;;;;;;;;;5042486;28;20209;-72
2022/06/19 08:14:30;;;;;;;14.63;3.78;;;;;;;;;;5042546;28;20197;-72
2022/06/19 08:16:56;;;;;;;15.95;3.95;;;;;;;;;;5042008;28;20217;-72
2022/06/19 08:19:22;;;;;;;19.27;3.97;;;;;;;;;;5042342;28;20389;-72
2022/06/19 08:21:49;;;;;;;13.13;3.70;;;;;;;;;;5042023;28;20201;-72
2022/06/19 08:24:17;;;;;;;18.05;4.25;;;;;;;;;;5041730;28;20212;-72
2022/06/19 08:26:43;;;;;;;13.65;4.20;;;;;;;;;;5041448;28;20201;-72
2022/06/19 08:29:09;;;;;;;16.10;4.22;;;;;;;;;;5041798;28;20395;-72
2022/06/19 08:31:37;;;;;;;23.92;5.30;;;;;;;;;;5041746;28;20202;-72
2022/06/19 08:34:03;;;;;;;19.38;4.85;;;;;;;;;;5041859;28;20219;-72
2022/06/19 08:36:33;;;;;;;15.38;4.82;;;;;;;;;;5041552;28;20217;-72
2022/06/19 08:39:01;;;;;;;17.48;4.85;;;;;;;;;;5041611;28;20519;-72
2022/06/19 08:41:33;;;;;;;14.27;4.72;;;;;;;;;;5041667;28;20207;-72
2022/06/19 08:44:12;;;;;;;18.30;5.40;;;;;;;;;;5041524;28;20524;-72
2022/06/19 08:46:47;;;;;;;17.17;5.32;;;;;;;;;;5041654;28;20500;-72
2022/06/19 08:49:20;;;;;;;13.48;4.22;;;;;;;;;;5041654;28;20196;-72
2022/06/19 08:51:50;;;;;;;15.13;3.95;;;;;;;;;;5041608;28;20528;-72
2022/06/19 08:54:23;;;;;;;22.30;9.18;;;;;;;;;;5041673;28;20443;-72
2022/06/19 08:56:53;;;;;;;14.43;4.38;;;;;;;;;;5041461;28;20225;-72
2022/06/19 08:59:25;;;;;;;19.00;4.57;;;;;;;;;;5041725;28;20201;-72
2022/06/19 09:01:54;;;;;;;13.63;4.40;;;;;;;;;;5041481;28;20208;-72
2022/06/19 09:07:14;;;;;;;14.07;5.13;;;;;;;;;;5044067;28;20287;-72
2022/06/19 09:09:49;;;;;;;17.90;5.05;;;;;;;;;;5045548;28;20198;-72
2022/06/19 09:12:21;;;;;;;19.58;5.30;;;;;;;;;;5045206;28;20216;-72
2022/06/19 09:14:52;;;;;;;24.10;5.82;;;;;;;;;;5045718;28;20251;-72
2022/06/19 09:17:22;;;;;;;16.85;5.60;;;;;;;;;;5044729;28;20221;-72
2022/06/19 09:19:49;;;;;;;16.17;5.47;;;;;;;;;;5045313;28;20219;-72
2022/06/19 09:22:33;;;;;;;19.77;5.30;;;;;;;;;;5045173;28;20243;-72
2022/06/19 09:25:07;;;;;;;22.23;6.53;;;;;;;;;;5045149;28;20204;-72
2022/06/19 09:27:35;;;;;;;18.98;6.25;;;;;;;;;;5044758;28;20232;-72
2022/06/19 09:30:04;;;;;;;20.17;6.20;;;;;;;;;;5045030;28;20204;-72
2022/06/19 09:32:34;;;;;;;13.73;6.63;;;;;;;;;;5044988;28;20492;-72
2022/06/19 09:35:02;;;;;;;23.60;6.72;;;;;;;;;;5045065;28;20201;-72
2022/06/19 09:37:31;;;;;;;12.18;6.80;;;;;;;;;;5044326;28;20217;-72
2022/06/19 09:39:59;;;;;;;18.95;7.03;;;;;;;;;;5044798;28;20205;-72
2022/06/19 09:42:28;;;;;;;26.00;8.23;;;;;;;;;;5044434;28;20223;-72
2022/06/19 09:44:58;;;;;;;18.73;8.13;;;;;;;;;;5045007;28;20197;-72
2022/06/19 09:47:29;;;;;;;17.00;8.13;;;;;;;;;;5044337;28;20202;-72
2022/06/19 09:49:58;;;;;;;25.70;7.70;;;;;;;;;;5044530;28;20463;-72
2022/06/19 09:52:27;;;;;;;26.00;8.50;;;;;;;;;;5044578;28;20248;-72
2022/06/19 09:54:56;;;;;;;21.90;8.30;;;;;;;;;;5044424;28;20243;-72
2022/06/19 09:57:26;;;;;;;16.35;8.43;;;;;;;;;;5044289;28;20221;-72
2022/06/19 09:59:55;;;;;;;17.58;8.27;;;;;;;;;;5044708;28;20203;-72
2022/06/19 10:02:27;;;;;;;21.00;8.15;;;;;;;;;;5044848;28;20223;-71
2022/06/19 10:04:55;;;;;;;28.60;7.72;;;;;;;;;;5044310;28;20552;-71
2022/06/19 10:07:26;;;;;;;17.40;7.00;;;;;;;;;;5044096;28;20200;-71
2022/06/19 10:09:54;;;;;;;25.92;7.32;;;;;;;;;;5044808;28;20507;-72
2022/06/19 10:12:25;;;;;;;24.85;7.30;;;;;;;;;;5044751;28;20197;-71
2022/06/19 10:14:52;;;;;;;19.73;7.22;;;;;;;;;;5044438;28;20208;-72
2022/06/19 10:17:22;;;;;;;16.08;7.40;;;;;;;;;;5043334;28;20225;-72
2022/06/19 10:19:50;;;;;;;18.30;7.50;;;;;;;;;;5044638;28;20395;-72
2022/06/19 10:22:25;;;;;;;18.27;7.75;;;;;;;;;;5044987;28;20197;-72
2022/06/19 10:25:01;;;;;;;21.17;8.05;;;;;;;;;;5044583;28;20550;-72
2022/06/19 10:27:32;;;;;;;19.90;7.13;;;;;;;;;;5044115;28;20366;-71
2022/06/19 10:30:02;;;;;;;16.33;7.45;;;;;;;;;;5044325;28;20204;-72
2022/06/19 10:32:43;;;;;;;13.57;7.38;;;;;;;;;;5044196;28;20212;-72
2022/06/19 10:35:15;;;;;;;19.15;7.25;;;;;;;;;;5045724;28;20198;-72
2022/06/19 10:37:49;;;;;;;19.25;7.57;;;;;;;;;;5058034;28;20216;-72
2022/06/19 10:40:24;;;;;;;16.17;7.10;;;;;;;;;;5053282;28;20200;-72
2022/06/19 10:42:54;;;;;;;18.65;7.60;;;;;;;;;;5052122;28;20188;-72
2022/06/19 10:45:25;;;;;;;21.20;7.57;;;;;;;;;;5043342;28;20272;-72
2022/06/19 10:48:18;;;;;;;20.42;6.93;;;;;;;;;;5045479;28;20390;-71
2022/06/19 10:50:48;;;;;;;18.33;6.47;;;;;;;;;;5031232;28;20216;-72
2022/06/19 10:53:25;;;;;;;20.80;6.70;;;;;;;;;;5048697;28;20517;-71
2022/06/19 10:55:55;;;;;;;21.63;7.05;;;;;;;;;;5055572;28;20224;-70
2022/06/19 10:58:23;;;;;;;25.67;7.28;;;;;;;;;;5057027;28;20429;-71
2022/06/19 11:00:51;;;;;;;17.13;6.65;;;;;;;;;;5049716;28;20246;-71
2022/06/19 11:06:08;;;;;;;25.02;6.75;;;;;;;;;;5063231;28;20409;-69
2022/06/19 11:08:35;;;;;;;20.80;6.25;;;;;;;;;;5063693;28;20201;-69
2022/06/19 11:11:04;;;;;;;21.13;6.53;;;;;;;;;;5063892;28;20220;-69
2022/06/19 11:13:49;;;;;;;15.57;5.90;;;;;;;;;;5063958;28;20197;-69
2022/06/19 11:16:15;;;;;;;19.95;6.30;;;;;;;;;;5063372;28;20204;-69
2022/06/19 11:18:46;;;;;;;25.10;5.90;;;;;;;;;;5063696;28;20543;-69
2022/06/19 11:21:14;;;;;;;22.92;6.68;;;;;;;;;;5063424;28;20204;-69
2022/06/19 11:23:41;;;;;;;16.10;6.00;;;;;;;;;;5063678;28;20219;-69
2022/06/19 11:26:10;;;;;;;22.15;6.22;;;;;;;;;;5063208;28;20258;-70
2022/06/19 11:28:42;;;;;;;24.55;6.28;;;;;;;;;;5062648;28;20225;-69
2022/06/19 11:31:11;;;;;;;17.23;5.70;;;;;;;;;;5063231;28;20211;-69
2022/06/19 11:33:38;;;;;;;22.15;5.85;;;;;;;;;;5063104;28;20270;-70
2022/06/19 11:36:05;;;;;;;22.08;6.22;;;;;;;;;;5062794;28;20235;-71
2022/06/19 11:38:34;;;;;;;17.15;5.90;;;;;;;;;;5062889;28;20401;-71
2022/06/19 11:41:00;;;;;;;15.70;5.68;;;;;;;;;;5062832;28;20204;-69
2022/06/19 11:43:30;;;;;;;14.77;5.82;;;;;;;;;;5063127;28;20226;-71
2022/06/19 11:46:01;;;;;;;12.15;5.07;;;;;;;;;;5063168;28;20212;-71
2022/06/19 11:48:27;;;;;;;21.00;5.15;;;;;;;;;;5062759;28;20205;-71
2022/06/19 11:50:54;;;;;;;14.77;4.57;;;;;;;;;;5062672;28;20203;-71
2022/06/19 11:53:22;;;;;;;14.65;5.20;;;;;;;;;;5062790;28;20512;-70
2022/06/19 11:55:49;;;;;;;26.38;5.10;;;;;;;;;;5062627;28;20208;-70
2022/06/19 11:58:20;;;;;;;20.35;5.20;;;;;;;;;;5062378;28;20224;-70
2022/06/19 12:00:54;;;;;;;17.42;5.05;;;;;;;;;;5062724;28;20208;-70
2022/06/19 12:03:24;;;;;;;20.00;5.00;;;;;;;;;;5062642;28;20393;-70
2022/06/19 12:05:52;;;;;;;16.05;5.35;;;;;;;;;;5062158;28;20221;-70
2022/06/19 12:08:22;;;;;;;20.83;4.63;;;;;;;;;;5062050;28;20487;-70
2022/06/19 12:10:52;;;;;;;19.27;5.25;;;;;;;;;;5062115;28;20235;-70
2022/06/19 12:13:21;;;;;;;19.05;5.13;;;;;;;;;;5061980;28;20235;-70
2022/06/19 12:15:54;;;;;;;14.05;5.15;;;;;;;;;;5061771;28;20215;-70
2022/06/19 12:18:21;;;;;;;23.08;5.20;;;;;;;;;;5062202;28;20212;-70
2022/06/19 12:20:56;;;;;;;21.02;4.72;;;;;;;;;;5061658;28;20512;-70
2022/06/19 12:23:24;;;;;;;21.95;5.22;;;;;;;;;;5061619;28;20203;-70
2022/06/19 12:25:51;;;;;;;11.07;4.82;;;;;;;;;;5061693;28;20200;-70
2022/06/19 12:28:22;;;;;;;16.55;5.07;;;;;;;;;;5061514;28;20521;-70
2022/06/19 12:30:51;;;;;;;19.98;5.35;;;;;;;;;;5061717;28;20219;-70
2022/06/19 12:33:21;;;;;;;24.33;5.47;;;;;;;;;;5061599;28;20422;-70
2022/06/19 12:35:49;;;;;;;18.10;4.68;;;;;;;;;;5061531;28;20200;-70
2022/06/19 12:38:16;;;;;;;18.50;5.25;;;;;;;;;;5061186;28;20225;-70
2022/06/19 12:40:49;;;;;;;19.25;5.38;;;;;;;;;;5060904;28;20363;-70
2022/06/19 12:43:18;;;;;;;18.20;5.07;;;;;;;;;;5061829;28;20192;-70
2022/06/19 12:45:49;;;;;;;15.73;4.63;;;;;;;;;;5061499;28;20197;-70
2022/06/19 12:48:32;;;;;;;14.73;4.68;;;;;;;;;;5061620;28;20485;-70
2022/06/19 12:51:04;;;;;;;20.77;5.60;;;;;;;;;;5061300;28;20235;-71
2022/06/19 12:53:45;;;;;;;14.60;4.47;;;;;;;;;;5061689;28;20204;-68
2022/06/19 12:56:18;;;;;;;12.52;4.90;;;;;;;;;;5059398;28;20219;-69
2022/06/19 12:59:00;;;;;;;19.00;5.65;;;;;;;;;;5061528;28;20447;-69
2022/06/19 13:01:33;;;;;;;13.52;4.57;;;;;;;;;;5061623;28;20649;-69
2022/06/19 13:04:03;;;;;;;19.00;5.13;;;;;;;;;;5061351;28;20262;-69
2022/06/19 13:06:38;;;;;;;23.70;5.72;;;;;;;;;;5061127;28;20229;-69
2022/06/19 13:09:13;;;;;;;15.80;4.82;;;;;;;;;;5061592;28;20472;-70
2022/06/19 13:11:43;;;;;;;25.25;5.28;;;;;;;;;;5061303;28;20196;-69
2022/06/19 13:14:25;;;;;;;16.80;4.43;;;;;;;;;;5061289;28;20272;-69
2022/06/19 13:16:57;;;;;;;16.60;5.53;;;;;;;;;;5060942;28;20196;-69
2022/06/19 13:19:29;;;;;;;16.88;4.60;;;;;;;;;;5061268;28;20224;-69
2022/06/19 13:21:59;;;;;;;16.40;5.10;;;;;;;;;;5061369;28;20395;-69
2022/06/19 13:24:30;;;;;;;15.35;5.07;;;;;;;;;;5061237;28;20200;-69
2022/06/19 13:27:12;;;;;;;19.73;5.38;;;;;;;;;;5061012;28;20197;-69
2022/06/19 13:29:43;;;;;;;15.30;4.88;;;;;;;;;;5061090;28;20468;-69
2022/06/19 13:32:15;;;;;;;18.05;4.80;;;;;;;;;;5061099;28;20197;-70
2022/06/19 13:34:47;;;;;;;14.75;4.80;;;;;;;;;;5061676;28;20197;-69
2022/06/19 13:37:19;;;;;;;12.80;4.80;;;;;;;;;;5061424;28;20235;-69
2022/06/19 13:39:51;;;;;;;21.65;4.55;;;;;;;;;;5061426;28;20216;-70
2022/06/19 13:42:29;;;;;;;19.65;4.72;;;;;;;;;;5061881;28;20364;-69
2022/06/19 13:45:01;;;;;;;20.98;4.95;;;;;;;;;;5061408;28;20196;-69
2022/06/19 13:47:31;;;;;;;15.73;5.18;;;;;;;;;;5061403;28;20197;-70
2022/06/19 13:49:59;;;;;;;24.58;5.20;;;;;;;;;;5061428;28;20197;-70
2022/06/19 13:52:35;;;;;;;18.73;4.53;;;;;;;;;;5062752;28;20212;-70
2022/06/19 13:55:04;;;;;;;27.33;5.43;;;;;;;;;;5065082;28;20203;-70
2022/06/19 13:57:34;;;;;;;16.50;4.70;;;;;;;;;;5064811;28;20395;-70
2022/06/19 14:00:23;;;;;;;15.13;4.80;;;;;;;;;;5064735;28;20221;-70
2022/06/19 14:03:10;;;;;;;16.38;4.93;;;;;;;;;;5064788;28;20365;-70
2022/06/19 14:05:38;;;;;;;19.70;5.10;;;;;;;;;;5064792;28;20291;-70
2022/06/19 14:08:12;;;;;;;15.60;4.35;;;;;;;;;;5064582;28;20209;-70
2022/06/19 14:10:42;;;;;;;12.98;4.85;;;;;;;;;;5064634;28;20507;-70
2022/06/19 14:13:11;;;;;;;21.23;5.13;;;;;;;;;;5064601;28;20203;-70
2022/06/19 14:15:46;;;;;;;20.75;4.90;;;;;;;;;;5064674;28;20200;-70
2022/06/19 14:18:14;;;;;;;20.80;5.05;;;;;;;;;;5064413;28;20227;-70
2022/06/19 14:20:48;;;;;;;21.02;4.80;;;;;;;;;;5064525;28;20197;-70
2022/06/19 14:23:19;;;;;;;23.33;4.65;;;;;;;;;;5064441;28;20203;-70
2022/06/19 14:25:49;;;;;;;17.02;4.15;;;;;;;;;;5064347;28;20411;-70
2022/06/19 14:28:19;;;;;;;15.98;4.53;;;;;;;;;;5064347;28;20192;-70
2022/06/19 14:30:47;;;;;;;14.80;4.45;;;;;;;;;;5064408;28;20207;-70
2022/06/19 14:33:28;;;;;;;25.92;5.30;;;;;;;;;;5064157;28;20201;-70
2022/06/19 14:36:03;;;;;;;18.65;4.15;;;;;;;;;;5063993;28;20235;-70
2022/06/19 14:38:34;;;;;;;25.65;4.78;;;;;;;;;;5064241;28;20251;-70
2022/06/19 14:41:03;;;;;;;20.15;4.57;;;;;;;;;;5064243;28;20215;-70
2022/06/19 14:43:32;;;;;;;19.38;4.43;;;;;;;;;;5064096;28;20200;-70
2022/06/19 14:46:10;;;;;;;21.52;4.45;;;;;;;;;;5063857;28;20496;-70
2022/06/19 14:48:39;;;;;;;20.63;4.60;;;;;;;;;;5063861;28;20201;-70
2022/06/19 14:51:14;;;;;;;12.15;3.75;;;;;;;;;;5063916;28;20196;-70